Time;durP1;ratioP1;P1;durP2;ratioP2;P2;SDS_P1;SDS_P2;PMS_P1;PMS_P2;Temp;Humidity;BMP_temperature;BMP_pressure;BME280_temperature;BME280_humidity;BME280_pressure;Samples;Min_cycle;Max_cycle;Signal;HPM_P1;HPM_P2
2022/10/22 00:02:04;;;;;;;1.80;1.10;;;18.00;59.60;;;;;;4967262;29;20023;-67
2022/10/22 00:04:30;;;;;;;1.15;1.00;;;18.10;59.60;;;;;;4967266;29;20091;-67
2022/10/22 00:06:56;;;;;;;1.10;1.00;;;18.00;59.60;;;;;;4967249;29;20023;-68
2022/10/22 00:09:22;;;;;;;1.95;1.20;;;18.10;59.60;;;;;;4967174;29;20086;-67
2022/10/22 00:11:48;;;;;;;1.73;1.13;;;18.10;59.60;;;;;;4967127;29;20034;-68
2022/10/22 00:14:15;;;;;;;1.05;0.98;;;18.10;59.50;;;;;;4967104;29;20015;-67
2022/10/22 00:16:40;;;;;;;1.23;1.13;;;18.10;59.60;;;;;;4967036;28;20086;-67
2022/10/22 00:19:08;;;;;;;1.33;1.10;;;18.00;59.60;;;;;;4966980;29;20023;-67
2022/10/22 00:21:34;;;;;;;0.68;0.68;;;18.10;59.60;;;;;;4966921;28;20046;-67
2022/10/22 00:24:00;;;;;;;0.80;0.80;;;18.00;59.60;;;;;;4966937;29;20300;-68
2022/10/22 00:26:26;;;;;;;1.40;1.13;;;18.10;59.70;;;;;;4966038;28;20027;-67
2022/10/22 00:28:52;;;;;;;1.23;1.13;;;18.10;59.70;;;;;;4966624;28;20203;-68
2022/10/22 00:31:19;;;;;;;0.80;0.80;;;18.00;59.60;;;;;;4966764;29;20027;-66
2022/10/22 00:33:47;;;;;;;1.92;0.80;;;18.00;59.60;;;;;;4966716;29;20023;-67
2022/10/22 00:36:14;;;;;;;1.05;0.95;;;18.00;59.50;;;;;;4966681;29;20239;-67
2022/10/22 00:38:40;;;;;;;1.58;1.02;;;18.10;59.60;;;;;;4966497;29;20042;-67
2022/10/22 00:41:06;;;;;;;1.10;1.00;;;18.00;59.50;;;;;;4966487;29;20223;-67
2022/10/22 00:44:00;;;;;;;0.93;0.88;;;18.00;59.50;;;;;;4966593;28;20321;-68
2022/10/22 00:46:27;;;;;;;1.25;1.02;;;18.00;60.20;;;;;;4966539;28;20019;-68
2022/10/22 00:48:55;;;;;;;1.25;1.00;;;18.10;59.50;;;;;;4966449;29;20042;-67
2022/10/22 00:51:23;;;;;;;2.10;0.93;;;18.10;59.50;;;;;;4966407;29;20345;-67
2022/10/22 00:53:54;;;;;;;1.23;0.73;;;18.00;59.50;;;;;;4966378;29;20027;-67
2022/10/22 00:56:22;;;;;;;0.80;0.80;;;18.10;59.50;;;;;;4966347;28;20082;-67
2022/10/22 00:58:54;;;;;;;2.20;1.00;;;18.00;59.60;;;;;;4966303;29;20032;-68
2022/10/22 01:01:24;;;;;;;1.67;1.05;;;18.00;59.60;;;;;;4966194;29;20026;-68
2022/10/22 01:03:50;;;;;;;1.85;1.10;;;18.00;59.50;;;;;;4966166;29;20022;-68
2022/10/22 01:06:33;;;;;;;0.90;0.80;;;18.10;60.10;;;;;;4966113;29;20030;-67
2022/10/22 01:09:05;;;;;;;1.10;1.00;;;18.10;59.40;;;;;;4966130;29;20326;-67
2022/10/22 01:11:41;;;;;;;1.75;1.02;;;18.10;59.40;;;;;;4966015;29;20027;-68
2022/10/22 01:14:18;;;;;;;0.98;0.88;;;18.10;60.00;;;;;;4966009;29;20027;-67
2022/10/22 01:17:12;;;;;;;0.90;0.85;;;18.00;59.40;;;;;;4965973;29;20023;-67
2022/10/22 01:20:27;;;;;;;1.42;0.90;;;18.00;59.50;;;;;;4965894;28;20027;-67
2022/10/22 01:23:20;;;;;;;1.13;1.00;;;18.10;59.50;;;;;;4972431;28;20035;-67
2022/10/22 01:26:04;;;;;;;1.20;1.00;;;18.10;59.40;;;;;;4965800;28;20027;-67
2022/10/22 01:28:56;;;;;;;1.20;1.10;;;18.10;59.40;;;;;;4965818;28;20135;-68
2022/10/22 01:31:23;;;;;;;1.33;1.23;;;18.10;59.30;;;;;;4965747;29;20011;-67
2022/10/22 01:33:52;;;;;;;1.02;0.93;;;18.00;59.30;;;;;;4965695;29;20042;-68
2022/10/22 01:36:19;;;;;;;1.00;0.90;;;18.00;59.30;;;;;;4965662;29;20244;-67
2022/10/22 01:38:45;;;;;;;1.00;0.90;;;18.10;59.40;;;;;;4965083;28;20150;-67
2022/10/22 01:41:12;;;;;;;1.42;0.90;;;18.10;59.40;;;;;;4965500;29;20031;-67
2022/10/22 01:43:38;;;;;;;1.25;1.05;;;18.10;59.30;;;;;;4965535;29;20019;-68
2022/10/22 01:46:05;;;;;;;1.15;1.10;;;18.00;59.40;;;;;;4965529;29;20050;-68
2022/10/22 01:48:46;;;;;;;0.88;0.80;;;18.10;59.30;;;;;;4965514;29;20077;-66
2022/10/22 01:51:18;;;;;;;1.60;1.00;;;18.00;59.30;;;;;;4965506;29;20027;-66
2022/10/22 01:54:11;;;;;;;1.08;0.77;;;18.10;59.30;;;;;;4965458;29;20034;-67
2022/10/22 01:56:55;;;;;;;1.05;0.90;;;18.00;59.30;;;;;;4965404;29;20054;-67
2022/10/22 01:59:33;;;;;;;1.17;1.08;;;18.00;59.30;;;;;;4965393;29;20027;-67
2022/10/22 02:02:11;;;;;;;1.10;1.00;;;18.00;59.30;;;;;;4965293;28;20043;-67
2022/10/22 02:04:42;;;;;;;;;;;18.00;59.30;;;;;;4965788;29;20102;-67
2022/10/22 02:07:11;;;;;;;0.77;0.77;;;18.00;59.30;;;;;;4965354;28;19909;-68
2022/10/22 02:09:39;;;;;;;0.88;0.88;;;18.10;59.30;;;;;;4965246;29;20023;-67
2022/10/22 02:12:08;;;;;;;1.07;0.97;;;18.10;59.20;;;;;;4965220;29;20025;-67
2022/10/22 02:14:34;;;;;;;;;;;18.10;59.30;;;;;;4965626;29;20019;-67
2022/10/22 02:17:01;;;;;;;1.33;1.02;;;18.00;59.30;;;;;;4965197;28;19902;-67
2022/10/22 02:20:05;;;;;;;1.23;1.10;;;18.00;59.30;;;;;;4965183;29;20029;-67
2022/10/22 02:22:31;;;;;;;0.98;0.88;;;18.00;59.20;;;;;;4964923;28;20043;-67
2022/10/22 02:24:57;;;;;;;1.17;0.88;;;18.00;59.20;;;;;;4965133;29;20039;-68
2022/10/22 02:27:33;;;;;;;1.30;1.08;;;18.00;59.20;;;;;;4965108;28;20211;-67
2022/10/22 02:30:16;;;;;;;1.00;0.90;;;18.00;59.20;;;;;;4965102;29;20019;-68
2022/10/22 02:33:00;;;;;;;1.40;1.00;;;18.00;59.20;;;;;;4965078;29;20026;-67
2022/10/22 02:35:27;;;;;;;1.33;1.10;;;18.10;59.40;;;;;;4965001;29;20030;-67
2022/10/22 02:37:55;;;;;;;2.15;1.10;;;18.00;59.30;;;;;;4964806;29;20055;-67
2022/10/22 02:40:22;;;;;;;1.27;1.17;;;18.00;59.20;;;;;;4965019;29;20057;-67
2022/10/22 02:42:49;;;;;;;0.90;0.80;;;18.00;59.20;;;;;;4963720;29;20039;-67
2022/10/22 02:45:19;;;;;;;1.42;1.08;;;18.00;59.30;;;;;;4964915;29;20030;-67
2022/10/22 02:47:45;;;;;;;0.85;0.85;;;18.00;59.30;;;;;;4964908;28;20019;-67
2022/10/22 02:50:11;;;;;;;1.15;1.02;;;18.00;59.30;;;;;;4965772;28;20023;-67
2022/10/22 02:52:38;;;;;;;0.90;0.80;;;18.10;59.30;;;;;;4968598;29;20306;-67
2022/10/22 02:55:04;;;;;;;0.90;0.88;;;18.00;59.20;;;;;;4968548;29;20322;-67
2022/10/22 02:57:31;;;;;;;1.30;1.00;;;18.00;59.20;;;;;;4968476;28;20299;-67
2022/10/22 02:59:56;;;;;;;1.45;1.13;;;18.00;59.20;;;;;;4968426;29;20027;-68
2022/10/22 03:02:22;;;;;;;0.82;0.80;;;18.00;59.20;;;;;;4968341;29;20066;-67
2022/10/22 03:04:48;;;;;;;1.08;0.95;;;18.00;59.20;;;;;;4968341;29;20079;-67
2022/10/22 03:07:14;;;;;;;1.23;1.00;;;18.00;59.20;;;;;;4967167;29;20030;-67
2022/10/22 03:09:39;;;;;;;0.93;0.85;;;18.00;59.20;;;;;;4968297;29;20023;-67
2022/10/22 03:12:07;;;;;;;1.23;0.93;;;18.00;59.20;;;;;;4968246;28;20027;-68
2022/10/22 03:14:33;;;;;;;2.05;0.93;;;18.00;59.20;;;;;;4968177;29;20030;-66
2022/10/22 03:16:59;;;;;;;3.38;1.75;;;18.00;59.20;;;;;;4968140;29;20019;-67
2022/10/22 03:19:25;;;;;;;1.20;1.00;;;18.00;59.20;;;;;;4968087;29;20027;-68
2022/10/22 03:21:59;;;;;;;0.80;0.80;;;18.00;59.20;;;;;;4967990;29;20019;-67
2022/10/22 03:24:30;;;;;;;1.00;1.00;;;18.00;59.20;;;;;;4968044;29;20038;-67
2022/10/22 03:26:56;;;;;;;2.20;0.98;;;18.00;59.20;;;;;;4967973;29;20022;-67
2022/10/22 03:29:24;;;;;;;2.22;1.10;;;18.00;59.20;;;;;;4967926;29;20031;-67
2022/10/22 03:31:51;;;;;;;1.05;0.95;;;18.00;59.20;;;;;;4967910;29;20023;-68
2022/10/22 03:34:17;;;;;;;0.95;0.93;;;18.00;59.20;;;;;;4967843;29;20023;-66
2022/10/22 03:36:43;;;;;;;1.30;0.88;;;18.00;59.20;;;;;;4967821;29;20046;-68
2022/10/22 03:39:12;;;;;;;1.27;1.00;;;18.00;59.10;;;;;;4967589;28;20227;-67
2022/10/22 03:41:38;;;;;;;1.33;0.90;;;18.00;59.10;;;;;;4967635;29;20231;-67
2022/10/22 03:44:04;;;;;;;1.10;1.00;;;18.00;59.10;;;;;;4967674;29;20042;-67
2022/10/22 03:46:30;;;;;;;1.10;0.80;;;18.00;59.10;;;;;;4967615;29;20043;-67
2022/10/22 03:48:56;;;;;;;1.10;1.00;;;18.00;59.10;;;;;;4967575;29;20211;-68
2022/10/22 03:51:22;;;;;;;1.30;0.95;;;18.00;59.10;;;;;;4967535;29;20073;-68
2022/10/22 03:53:47;;;;;;;1.70;0.93;;;18.00;59.10;;;;;;4967514;29;20023;-68
2022/10/22 03:56:13;;;;;;;1.52;1.00;;;18.00;59.10;;;;;;4967470;29;20212;-68
2022/10/22 03:58:40;;;;;;;1.08;0.90;;;18.00;59.10;;;;;;4967399;29;20338;-68
2022/10/22 04:01:09;;;;;;;1.15;1.05;;;18.00;59.10;;;;;;4967081;28;20062;-67
2022/10/22 04:03:35;;;;;;;;;;;18.00;59.10;;;;;;4967727;29;20023;-68
2022/10/22 04:06:09;;;;;;;1.13;0.88;;;18.00;59.10;;;;;;4966176;29;19902;-67
2022/10/22 04:08:35;;;;;;;1.15;0.95;;;18.00;59.10;;;;;;4967259;29;20070;-68
2022/10/22 04:11:01;;;;;;;1.08;0.93;;;18.00;59.10;;;;;;4982162;28;20023;-68
2022/10/22 04:13:27;;;;;;;1.10;1.08;;;18.00;59.00;;;;;;4967111;29;20323;-68
2022/10/22 04:15:53;;;;;;;0.80;0.80;;;18.00;59.10;;;;;;4967088;29;20027;-68
2022/10/22 04:18:21;;;;;;;1.23;1.08;;;18.00;59.10;;;;;;4967041;29;20027;-67
2022/10/22 04:20:47;;;;;;;0.95;0.80;;;17.90;59.00;;;;;;4966955;29;20023;-67
2022/10/22 04:23:13;;;;;;;1.10;1.00;;;18.00;59.10;;;;;;4966974;28;20034;-68
2022/10/22 04:25:39;;;;;;;1.73;1.35;;;18.00;59.10;;;;;;4966909;29;20015;-68
2022/10/22 04:28:09;;;;;;;1.50;0.77;;;18.00;59.10;;;;;;4966845;29;20027;-67
2022/10/22 04:30:35;;;;;;;1.05;0.95;;;17.90;59.00;;;;;;4966826;29;20022;-68
2022/10/22 04:33:02;;;;;;;1.23;1.13;;;17.90;59.00;;;;;;4966797;29;20023;-67
2022/10/22 04:35:28;;;;;;;1.02;0.93;;;17.90;59.10;;;;;;4966729;29;20019;-67
2022/10/22 04:37:54;;;;;;;0.80;0.80;;;17.90;59.10;;;;;;4966530;29;20089;-67
2022/10/22 04:40:20;;;;;;;1.10;1.00;;;18.00;59.10;;;;;;4966888;29;20019;-67
2022/10/22 04:42:46;;;;;;;1.10;1.00;;;17.90;59.00;;;;;;4966510;29;20381;-67
2022/10/22 04:45:12;;;;;;;1.00;1.00;;;17.90;59.00;;;;;;4966556;29;20019;-67
2022/10/22 04:47:38;;;;;;;1.48;1.15;;;17.90;59.00;;;;;;4966708;29;20315;-68
2022/10/22 04:50:04;;;;;;;1.20;1.05;;;17.90;59.10;;;;;;4966478;29;20219;-68
2022/10/22 04:52:30;;;;;;;0.85;0.70;;;17.90;59.10;;;;;;4966426;29;20074;-67
2022/10/22 04:54:56;;;;;;;0.95;0.80;;;17.90;59.00;;;;;;4966345;29;20023;-67
2022/10/22 04:57:21;;;;;;;0.88;0.80;;;17.90;59.00;;;;;;4966333;28;20050;-67
2022/10/22 04:59:47;;;;;;;1.13;1.00;;;17.90;59.00;;;;;;4966276;29;20082;-67
2022/10/22 05:02:13;;;;;;;1.40;1.20;;;17.90;59.00;;;;;;4966147;29;20219;-67
2022/10/22 05:04:39;;;;;;;1.10;1.00;;;17.90;59.60;;;;;;4966171;29;20066;-67
2022/10/22 05:07:05;;;;;;;0.80;0.75;;;17.90;59.00;;;;;;4966142;29;20353;-67
2022/10/22 05:09:30;;;;;;;1.40;0.82;;;17.90;59.00;;;;;;4966110;29;20232;-67
2022/10/22 05:11:56;;;;;;;1.50;1.13;;;17.90;59.00;;;;;;4966030;29;20047;-68
2022/10/22 05:14:23;;;;;;;1.40;1.08;;;17.90;59.10;;;;;;4965454;28;20204;-67
2022/10/22 05:16:50;;;;;;;1.10;0.93;;;17.90;59.00;;;;;;4965956;29;20023;-67
2022/10/22 05:19:22;;;;;;;1.05;0.90;;;17.90;59.00;;;;;;4965937;29;20062;-68
2022/10/22 05:21:49;;;;;;;1.00;0.90;;;17.90;59.00;;;;;;4965837;29;20039;-67
2022/10/22 05:24:16;;;;;;;1.20;1.10;;;17.90;59.00;;;;;;4965871;28;20038;-67
2022/10/22 05:26:42;;;;;;;1.13;0.95;;;17.90;59.00;;;;;;4965823;29;20085;-67
2022/10/22 05:29:07;;;;;;;0.95;0.95;;;17.90;59.00;;;;;;4965782;29;20221;-67
2022/10/22 05:31:33;;;;;;;1.10;1.00;;;17.90;59.00;;;;;;4965781;29;20156;-67
2022/10/22 05:33:59;;;;;;;1.35;1.05;;;17.90;59.00;;;;;;4965734;28;20022;-67
2022/10/22 05:36:25;;;;;;;1.63;1.17;;;17.90;59.00;;;;;;4965684;29;20247;-68
2022/10/22 05:38:51;;;;;;;1.10;1.00;;;17.90;59.00;;;;;;4965478;29;20151;-68
2022/10/22 05:41:20;;;;;;;1.10;0.98;;;17.90;59.00;;;;;;4965508;29;20031;-68
2022/10/22 05:43:46;;;;;;;;;;;17.90;59.10;;;;;;4965996;29;20329;-68
2022/10/22 05:46:14;;;;;;;1.17;1.02;;;17.90;59.00;;;;;;4965575;28;20007;-67
2022/10/22 05:48:41;;;;;;;0.93;0.82;;;17.90;59.00;;;;;;4965533;29;20046;-67
2022/10/22 05:51:09;;;;;;;0.90;0.90;;;17.90;59.00;;;;;;4965471;29;20258;-67
2022/10/22 05:53:37;;;;;;;;;;;17.90;59.10;;;;;;4965893;28;20026;-67
2022/10/22 05:56:05;;;;;;;1.13;1.02;;;17.90;59.00;;;;;;4965491;28;19902;-67
2022/10/22 05:58:31;;;;;;;;;;;17.90;59.00;;;;;;4965761;29;20023;-67
2022/10/22 06:01:07;;;;;;;1.15;0.80;;;17.90;59.00;;;;;;4965305;28;20105;-68
2022/10/22 06:03:33;;;;;;;1.23;1.13;;;17.90;59.00;;;;;;4965368;29;20034;-68
2022/10/22 06:06:02;;;;;;;0.95;0.90;;;17.90;58.90;;;;;;4965252;29;20087;-67
2022/10/22 06:08:29;;;;;;;1.00;0.80;;;17.90;59.00;;;;;;4965276;29;20086;-67
2022/10/22 06:10:55;;;;;;;1.33;1.20;;;17.90;59.00;;;;;;4965227;29;20055;-67
2022/10/22 06:13:21;;;;;;;1.15;0.90;;;17.90;59.00;;;;;;4965216;29;20011;-67
2022/10/22 06:15:48;;;;;;;1.10;1.00;;;17.90;59.00;;;;;;4965249;28;20026;-68
2022/10/22 06:18:14;;;;;;;1.00;1.00;;;17.90;59.00;;;;;;4965191;29;20054;-67
2022/10/22 06:20:42;;;;;;;1.48;1.15;;;17.90;59.10;;;;;;4965115;28;20019;-68
2022/10/22 06:23:07;;;;;;;1.08;0.98;;;17.90;59.00;;;;;;4965184;28;20012;-67
2022/10/22 06:25:33;;;;;;;1.20;1.10;;;17.90;59.00;;;;;;4968330;28;20023;-67
2022/10/22 06:27:59;;;;;;;1.50;1.38;;;17.90;59.00;;;;;;4969018;29;20039;-67
2022/10/22 06:30:25;;;;;;;2.00;1.10;;;17.90;59.00;;;;;;4983965;28;20050;-67
2022/10/22 06:32:50;;;;;;;1.27;0.95;;;17.90;58.90;;;;;;4968957;29;20026;-68
2022/10/22 06:35:16;;;;;;;0.98;0.90;;;17.90;59.00;;;;;;4968928;29;20219;-67
2022/10/22 06:37:43;;;;;;;1.13;1.02;;;17.90;59.00;;;;;;4968744;29;20110;-67
2022/10/22 06:40:09;;;;;;;1.27;1.02;;;17.90;58.90;;;;;;4968826;28;20090;-67
2022/10/22 06:42:35;;;;;;;1.05;0.98;;;17.90;58.90;;;;;;4968980;28;20055;-67
2022/10/22 06:45:01;;;;;;;1.42;1.27;;;17.90;58.90;;;;;;4968718;29;20023;-67
2022/10/22 06:47:27;;;;;;;1.60;1.15;;;17.90;58.90;;;;;;4968696;29;20026;-67
2022/10/22 06:49:53;;;;;;;1.33;0.98;;;17.90;58.80;;;;;;4968681;29;20019;-68
2022/10/22 06:52:18;;;;;;;1.65;1.10;;;17.90;58.90;;;;;;4968635;29;20023;-67
2022/10/22 06:54:44;;;;;;;2.08;1.02;;;17.80;59.10;;;;;;4968559;29;20070;-68
2022/10/22 06:57:10;;;;;;;1.58;1.10;;;17.80;59.40;;;;;;4968540;28;20027;-68
2022/10/22 06:59:36;;;;;;;1.17;1.08;;;17.70;59.30;;;;;;4968470;29;20023;-67
2022/10/22 07:02:02;;;;;;;1.20;1.10;;;17.80;59.40;;;;;;4968401;29;20390;-68
2022/10/22 07:04:27;;;;;;;1.13;0.90;;;17.80;59.30;;;;;;4968415;29;20026;-67
2022/10/22 07:06:56;;;;;;;1.00;0.90;;;17.80;59.30;;;;;;4968346;29;20019;-67
2022/10/22 07:09:22;;;;;;;1.40;1.30;;;17.80;59.20;;;;;;4968344;29;20047;-67
2022/10/22 07:11:47;;;;;;;1.20;1.10;;;17.80;59.20;;;;;;4968281;29;20031;-67
2022/10/22 07:14:14;;;;;;;1.17;1.08;;;17.80;59.10;;;;;;4968200;29;20034;-68
2022/10/22 07:16:44;;;;;;;1.00;0.90;;;17.80;59.20;;;;;;4968205;28;20266;-67
2022/10/22 07:19:11;;;;;;;0.95;0.90;;;17.80;59.90;;;;;;4968262;28;20019;-67
2022/10/22 07:21:37;;;;;;;1.17;1.08;;;17.80;59.20;;;;;;4968058;29;20050;-67
2022/10/22 07:24:03;;;;;;;1.38;1.23;;;17.80;59.10;;;;;;4968079;29;20219;-67
2022/10/22 07:26:31;;;;;;;1.17;1.08;;;17.80;59.30;;;;;;4968045;29;20070;-67
2022/10/22 07:28:58;;;;;;;1.63;1.20;;;17.80;59.30;;;;;;4968014;28;20019;-67
2022/10/22 07:31:24;;;;;;;1.00;0.93;;;17.80;59.30;;;;;;4967952;29;20552;-67
2022/10/22 07:33:50;;;;;;;1.27;1.17;;;17.80;59.20;;;;;;4967910;29;20050;-68
2022/10/22 07:36:16;;;;;;;0.98;0.95;;;17.80;59.20;;;;;;4967270;28;20023;-67
2022/10/22 07:38:54;;;;;;;1.15;1.05;;;17.90;59.10;;;;;;4967631;29;20054;-68
2022/10/22 07:41:20;;;;;;;1.30;1.00;;;17.90;58.80;;;;;;4967780;29;20233;-67
2022/10/22 07:43:45;;;;;;;1.55;1.10;;;18.00;58.60;;;;;;4967726;29;20094;-68
2022/10/22 07:46:12;;;;;;;1.40;0.93;;;18.00;58.60;;;;;;4967651;29;20027;-67
2022/10/22 07:48:38;;;;;;;0.73;0.73;;;18.10;58.50;;;;;;4967633;29;20015;-68
2022/10/22 07:51:04;;;;;;;1.83;1.13;;;18.10;58.50;;;;;;4967640;28;20033;-67
2022/10/22 07:53:30;;;;;;;0.88;0.80;;;18.10;58.40;;;;;;4967553;28;20058;-67
2022/10/22 07:55:56;;;;;;;1.20;1.00;;;18.20;58.40;;;;;;4967492;29;20027;-67
2022/10/22 07:58:22;;;;;;;1.45;1.20;;;18.10;58.40;;;;;;4967455;28;20027;-67
2022/10/22 08:00:49;;;;;;;1.13;1.00;;;18.10;58.50;;;;;;4967316;29;20106;-67
2022/10/22 08:03:17;;;;;;;3.20;1.10;;;18.00;58.70;;;;;;4967372;29;20038;-67
2022/10/22 08:05:43;;;;;;;1.13;1.02;;;18.00;58.80;;;;;;4967309;29;20070;-68
2022/10/22 08:08:10;;;;;;;1.35;1.05;;;18.00;58.90;;;;;;4966137;29;20015;-67
2022/10/22 08:10:36;;;;;;;1.13;1.00;;;18.00;58.90;;;;;;4967217;29;20047;-67
2022/10/22 08:13:02;;;;;;;1.42;1.30;;;18.00;59.50;;;;;;4967195;29;20033;-68
2022/10/22 08:15:28;;;;;;;1.20;1.08;;;18.10;59.00;;;;;;4967145;29;20426;-67
2022/10/22 08:17:54;;;;;;;1.55;1.20;;;18.00;59.00;;;;;;4967102;29;20019;-67
2022/10/22 08:20:20;;;;;;;1.00;0.90;;;18.00;59.00;;;;;;4967062;29;20083;-68
2022/10/22 08:22:45;;;;;;;1.35;1.20;;;18.00;59.00;;;;;;4966949;29;20323;-67
2022/10/22 08:25:11;;;;;;;1.30;1.08;;;18.00;59.00;;;;;;4966989;28;20079;-68
2022/10/22 08:27:37;;;;;;;1.13;1.05;;;18.00;59.10;;;;;;4966910;29;20019;-67
2022/10/22 08:30:04;;;;;;;1.33;1.10;;;18.00;59.20;;;;;;4966891;29;20023;-66
2022/10/22 08:32:31;;;;;;;1.20;0.95;;;18.00;59.20;;;;;;4966822;29;20418;-68
2022/10/22 08:34:56;;;;;;;0.80;0.80;;;18.00;59.20;;;;;;4966789;28;20058;-67
2022/10/22 08:37:22;;;;;;;0.95;0.93;;;18.00;59.30;;;;;;4966545;29;20023;-68
2022/10/22 08:39:48;;;;;;;1.38;0.93;;;17.90;59.30;;;;;;4966708;29;20038;-67
2022/10/22 08:42:32;;;;;;;1.10;1.00;;;18.00;59.40;;;;;;4966597;28;20038;-67
2022/10/22 08:45:07;;;;;;;1.33;1.00;;;17.90;59.40;;;;;;4966655;28;20017;-67
2022/10/22 08:47:40;;;;;;;1.25;1.10;;;17.90;59.50;;;;;;4965706;28;20019;-68
2022/10/22 08:50:11;;;;;;;1.17;1.08;;;17.90;59.50;;;;;;4966489;29;20019;-68
2022/10/22 08:52:40;;;;;;;1.30;1.20;;;17.90;59.60;;;;;;4966443;29;20323;-67
2022/10/22 08:55:13;;;;;;;1.38;0.88;;;17.90;59.60;;;;;;4966386;29;20031;-67
2022/10/22 08:57:59;;;;;;;0.65;0.65;;;17.90;59.60;;;;;;4966342;29;20307;-67
2022/10/22 09:00:35;;;;;;;1.45;1.25;;;17.90;59.60;;;;;;4966356;29;20272;-67
2022/10/22 09:03:26;;;;;;;0.85;0.85;;;17.90;59.50;;;;;;4966214;29;20030;-67
2022/10/22 09:06:17;;;;;;;2.90;1.00;;;17.90;59.50;;;;;;4966213;29;20023;-68
2022/10/22 09:08:45;;;;;;;0.93;0.85;;;17.90;59.60;;;;;;4966228;28;20026;-67
2022/10/22 09:11:34;;;;;;;0.93;0.93;;;17.90;59.50;;;;;;4966154;29;20386;-67
2022/10/22 09:14:01;;;;;;;0.70;0.70;;;17.90;60.20;;;;;;4966124;29;20046;-68
2022/10/22 09:16:47;;;;;;;1.15;1.02;;;17.90;59.50;;;;;;4966035;29;20062;-67
2022/10/22 09:19:37;;;;;;;1.13;1.02;;;17.90;59.50;;;;;;4966031;29;20211;-67
2022/10/22 09:22:32;;;;;;;1.10;0.90;;;17.90;59.50;;;;;;4965907;29;20027;-67
2022/10/22 09:25:19;;;;;;;1.58;1.27;;;18.00;59.50;;;;;;4965938;29;20337;-67
2022/10/22 09:27:45;;;;;;;1.38;1.23;;;17.90;59.40;;;;;;4965841;29;20018;-67
2022/10/22 09:30:18;;;;;;;1.52;1.00;;;18.00;59.50;;;;;;4965804;29;20315;-67
2022/10/22 09:32:44;;;;;;;1.40;1.30;;;18.00;59.50;;;;;;4965798;29;20032;-68
2022/10/22 09:35:13;;;;;;;1.08;0.80;;;18.00;59.50;;;;;;4965737;29;20092;-67
2022/10/22 09:37:49;;;;;;;1.13;0.95;;;18.00;59.50;;;;;;4965519;29;20064;-67
2022/10/22 09:40:16;;;;;;;0.93;0.93;;;18.00;59.40;;;;;;4965696;29;20090;-67
2022/10/22 09:42:44;;;;;;;0.90;0.90;;;18.00;59.40;;;;;;4965562;29;20030;-68
2022/10/22 09:45:23;;;;;;;1.27;1.00;;;18.00;59.30;;;;;;4965590;29;20087;-68
2022/10/22 09:47:49;;;;;;;1.30;1.00;;;18.00;59.30;;;;;;4965555;29;20260;-68
2022/10/22 09:50:29;;;;;;;1.27;1.13;;;18.00;59.40;;;;;;4965513;29;20015;-67
2022/10/22 09:53:30;;;;;;;1.33;1.02;;;18.00;59.40;;;;;;4965538;28;20019;-67
2022/10/22 09:55:59;;;;;;;0.90;0.90;;;18.00;59.50;;;;;;4965469;29;20051;-68
2022/10/22 09:58:26;;;;;;;0.80;0.80;;;18.00;59.50;;;;;;4965412;28;20019;-67
2022/10/22 10:00:59;;;;;;;0.88;0.88;;;18.00;59.50;;;;;;4965164;28;20031;-67
2022/10/22 10:03:29;;;;;;;2.03;1.10;;;18.00;59.60;;;;;;4965290;29;20234;-68
2022/10/22 10:05:58;;;;;;;1.27;1.15;;;18.00;59.60;;;;;;4965621;28;20011;-67
2022/10/22 10:08:25;;;;;;;1.17;1.02;;;18.00;59.60;;;;;;4965284;29;20075;-68
2022/10/22 10:11:04;;;;;;;2.67;1.40;;;17.90;59.60;;;;;;4965265;29;20016;-67
2022/10/22 10:13:55;;;;;;;1.20;1.10;;;18.00;59.60;;;;;;4965261;29;20042;-67
2022/10/22 10:16:47;;;;;;;1.13;1.02;;;18.00;59.60;;;;;;4965294;28;20011;-68
2022/10/22 10:19:22;;;;;;;1.10;0.98;;;18.00;59.50;;;;;;4965261;28;20311;-67
2022/10/22 10:22:03;;;;;;;1.48;1.10;;;18.00;59.60;;;;;;4965142;29;20215;-67
2022/10/22 10:24:57;;;;;;;0.82;0.82;;;18.00;59.60;;;;;;4965191;29;20016;-67
2022/10/22 10:27:46;;;;;;;1.13;1.00;;;18.00;59.60;;;;;;4965166;29;20015;-67
2022/10/22 10:30:22;;;;;;;1.48;1.00;;;18.00;59.60;;;;;;4965141;28;20458;-68
2022/10/22 10:33:02;;;;;;;1.35;1.17;;;18.00;59.60;;;;;;4965313;29;20031;-67
2022/10/22 10:36:03;;;;;;;1.00;0.93;;;18.00;59.60;;;;;;4965098;29;20319;-68
2022/10/22 10:38:37;;;;;;;1.15;1.05;;;18.00;59.70;;;;;;4964888;29;20051;-66
2022/10/22 10:41:06;;;;;;;1.52;1.10;;;17.90;59.70;;;;;;4965204;29;20030;-67
2022/10/22 10:43:59;;;;;;;1.40;1.30;;;17.90;59.70;;;;;;4965004;29;20086;-67
2022/10/22 10:47:00;;;;;;;1.00;0.93;;;18.00;59.70;;;;;;4965011;28;20027;-67
2022/10/22 10:49:28;;;;;;;1.10;1.00;;;18.00;59.70;;;;;;4965801;28;20019;-69
2022/10/22 10:52:14;;;;;;;1.10;0.93;;;18.00;59.70;;;;;;4968271;28;20099;-68
2022/10/22 10:54:46;;;;;;;1.08;0.98;;;18.00;59.60;;;;;;4963769;29;20219;-66
2022/10/22 10:57:50;;;;;;;1.65;1.02;;;18.00;59.60;;;;;;4964892;28;20316;-67
2022/10/22 11:00:20;;;;;;;1.42;1.27;;;18.00;59.60;;;;;;4973562;28;20078;-68
2022/10/22 11:03:10;;;;;;;1.05;1.00;;;18.00;59.70;;;;;;4964767;29;20023;-68
2022/10/22 11:05:49;;;;;;;0.80;0.80;;;18.00;59.70;;;;;;4964851;29;20030;-67
2022/10/22 11:08:35;;;;;;;1.10;1.00;;;18.00;59.70;;;;;;4964841;29;20338;-67
2022/10/22 11:11:14;;;;;;;1.35;1.00;;;17.90;59.70;;;;;;4965326;28;20042;-67
2022/10/22 11:13:58;;;;;;;1.20;1.10;;;18.00;59.70;;;;;;4968337;29;20066;-67
2022/10/22 11:16:48;;;;;;;1.35;1.10;;;18.00;59.70;;;;;;4968257;29;20051;-68
2022/10/22 11:19:36;;;;;;;0.80;0.80;;;18.00;59.70;;;;;;4970414;28;20035;-68
2022/10/22 11:22:17;;;;;;;1.23;1.10;;;18.00;59.70;;;;;;4968132;29;20019;-68
2022/10/22 11:24:54;;;;;;;0.98;0.98;;;18.00;60.30;;;;;;4968105;29;20019;-67
2022/10/22 11:27:38;;;;;;;1.02;0.93;;;18.00;59.70;;;;;;4968093;29;20015;-68
2022/10/22 11:30:13;;;;;;;1.00;0.90;;;18.00;59.70;;;;;;4968007;29;20188;-67
2022/10/22 11:32:42;;;;;;;1.33;1.00;;;18.00;59.70;;;;;;4968000;28;20018;-66
2022/10/22 11:35:19;;;;;;;2.20;1.27;;;18.00;59.70;;;;;;4967907;29;20207;-68
2022/10/22 11:37:46;;;;;;;1.10;1.00;;;18.00;59.60;;;;;;4967732;29;20106;-68
2022/10/22 11:40:19;;;;;;;1.15;1.05;;;18.00;59.70;;;;;;4967824;29;20026;-68
2022/10/22 11:42:52;;;;;;;1.20;1.10;;;18.00;59.60;;;;;;4967706;29;20031;-67
2022/10/22 11:45:19;;;;;;;0.90;0.90;;;18.00;59.60;;;;;;4967744;29;20215;-67
2022/10/22 11:47:55;;;;;;;0.80;0.77;;;18.00;59.60;;;;;;4967667;28;20011;-66
2022/10/22 11:50:42;;;;;;;1.00;0.90;;;18.00;59.70;;;;;;4967695;28;20329;-68
2022/10/22 11:53:14;;;;;;;0.90;0.90;;;18.00;59.70;;;;;;4967860;29;20215;-67
2022/10/22 11:55:47;;;;;;;1.30;1.10;;;18.00;59.70;;;;;;4967563;28;20069;-67
2022/10/22 11:58:29;;;;;;;1.00;0.98;;;18.00;59.70;;;;;;4967567;28;20023;-67
2022/10/22 12:00:56;;;;;;;1.10;1.00;;;18.00;59.80;;;;;;4967655;29;20040;-67
2022/10/22 12:03:31;;;;;;;1.00;0.90;;;17.90;59.80;;;;;;4967398;29;20074;-68
2022/10/22 12:06:12;;;;;;;1.83;1.13;;;17.90;59.80;;;;;;4967341;29;20020;-67
2022/10/22 12:08:53;;;;;;;0.90;0.85;;;17.90;59.80;;;;;;4967572;28;20019;-67
2022/10/22 12:11:27;;;;;;;0.80;0.80;;;17.90;59.80;;;;;;4967255;29;20023;-66
2022/10/22 12:14:12;;;;;;;1.30;1.10;;;17.90;59.80;;;;;;4967226;28;20031;-67
2022/10/22 12:16:44;;;;;;;1.10;1.00;;;17.90;59.90;;;;;;4967209;28;20053;-68
2022/10/22 12:19:10;;;;;;;1.10;1.00;;;17.90;59.80;;;;;;4967127;29;20027;-68
2022/10/22 12:21:38;;;;;;;1.13;1.00;;;17.90;59.90;;;;;;4966898;28;20026;-67
2022/10/22 12:24:05;;;;;;;;;;;17.90;59.90;;;;;;4967447;29;20049;-67
2022/10/22 12:26:33;;;;;;;1.45;1.10;;;17.90;59.90;;;;;;4966992;28;19908;-67
2022/10/22 12:29:00;;;;;;;;;;;17.90;60.00;;;;;;4967303;29;20057;-67
2022/10/22 12:31:27;;;;;;;1.10;1.00;;;17.90;59.90;;;;;;4966905;28;19910;-68
2022/10/22 12:33:59;;;;;;;1.17;1.08;;;17.90;59.90;;;;;;4966824;29;20026;-68
2022/10/22 12:36:26;;;;;;;1.15;1.05;;;17.90;59.90;;;;;;4966775;29;20034;-68
2022/10/22 12:38:52;;;;;;;0.95;0.88;;;17.90;59.90;;;;;;4966574;29;20051;-67
2022/10/22 12:41:29;;;;;;;1.13;1.02;;;17.90;60.60;;;;;;4966637;28;20038;-67
2022/10/22 12:43:58;;;;;;;1.02;0.93;;;17.90;60.00;;;;;;4966667;28;20022;-68
2022/10/22 12:46:26;;;;;;;0.90;0.90;;;17.90;60.00;;;;;;4966600;28;20070;-68
2022/10/22 12:48:52;;;;;;;1.20;1.05;;;17.90;60.00;;;;;;4966571;29;20022;-68
2022/10/22 12:51:19;;;;;;;1.63;1.23;;;17.90;59.90;;;;;;4966510;28;20027;-67
2022/10/22 12:53:55;;;;;;;1.50;1.30;;;17.90;59.90;;;;;;4966473;29;20027;-67
2022/10/22 12:56:28;;;;;;;1.13;1.00;;;17.90;60.00;;;;;;4966428;29;20053;-67
2022/10/22 12:59:27;;;;;;;1.20;1.10;;;17.90;60.00;;;;;;4966438;28;20066;-67
2022/10/22 13:01:54;;;;;;;1.17;1.08;;;17.90;59.90;;;;;;4966305;28;20054;-67
2022/10/22 13:04:33;;;;;;;1.02;0.90;;;17.90;59.90;;;;;;4966288;29;20022;-67
2022/10/22 13:07:10;;;;;;;1.20;1.10;;;17.90;59.90;;;;;;4966260;29;20015;-67
2022/10/22 13:09:42;;;;;;;1.10;1.00;;;17.90;59.90;;;;;;4966250;29;20019;-68